sensor_id;sensor_type;location;lat;lon;timestamp;temperature;humidity
50586;DHT22;36542;51.700;8.846;2022-12-18T00:00:42;-4.90;99.90
50586;DHT22;36542;51.700;8.846;2022-12-18T00:03:07;-4.80;99.90
50586;DHT22;36542;51.700;8.846;2022-12-18T00:05:33;-4.80;99.90
50586;DHT22;36542;51.700;8.846;2022-12-18T00:07:59;-4.80;99.90
50586;DHT22;36542;51.700;8.846;2022-12-18T00:10:24;-4.80;99.90
50586;DHT22;36542;51.700;8.846;2022-12-18T00:12:50;-4.80;99.90
50586;DHT22;36542;51.700;8.846;2022-12-18T00:15:15;-4.80;99.90
50586;DHT22;36542;51.700;8.846;2022-12-18T00:17:41;-4.80;99.90
50586;DHT22;36542;51.700;8.846;2022-12-18T00:20:07;-4.90;99.90
50586;DHT22;36542;51.700;8.846;2022-12-18T00:22:33;-4.90;99.90
50586;DHT22;36542;51.700;8.846;2022-12-18T00:24:58;-4.90;99.90
50586;DHT22;36542;51.700;8.846;2022-12-18T00:27:24;-4.80;99.90
50586;DHT22;36542;51.700;8.846;2022-12-18T00:29:50;-4.70;99.90
50586;DHT22;36542;51.700;8.846;2022-12-18T00:32:16;-4.70;99.90
50586;DHT22;36542;51.700;8.846;2022-12-18T00:34:41;-4.80;99.90
50586;DHT22;36542;51.700;8.846;2022-12-18T00:37:07;-4.70;99.90
50586;DHT22;36542;51.700;8.846;2022-12-18T00:39:32;-4.60;99.90
50586;DHT22;36542;51.700;8.846;2022-12-18T00:41:58;-4.60;99.90
50586;DHT22;36542;51.700;8.846;2022-12-18T00:44:42;-4.70;99.90
50586;DHT22;36542;51.700;8.846;2022-12-18T00:47:08;-4.70;99.90
50586;DHT22;36542;51.700;8.846;2022-12-18T00:49:33;-4.70;99.90
50586;DHT22;36542;51.700;8.846;2022-12-18T00:51:59;-4.70;99.90
50586;DHT22;36542;51.700;8.846;2022-12-18T00:54:24;-4.60;99.90
50586;DHT22;36542;51.700;8.846;2022-12-18T00:56:50;-4.60;99.90
50586;DHT22;36542;51.700;8.846;2022-12-18T00:59:17;-4.60;99.90
50586;DHT22;36542;51.700;8.846;2022-12-18T01:01:43;-4.60;99.90
50586;DHT22;36542;51.700;8.846;2022-12-18T01:04:08;-4.70;99.90
50586;DHT22;36542;51.700;8.846;2022-12-18T01:06:34;-4.70;99.90
50586;DHT22;36542;51.700;8.846;2022-12-18T01:08:59;-4.70;99.90
50586;DHT22;36542;51.700;8.846;2022-12-18T01:11:25;-4.70;99.90
50586;DHT22;36542;51.700;8.846;2022-12-18T01:13:53;-4.70;99.90
50586;DHT22;36542;51.700;8.846;2022-12-18T01:16:19;-4.60;99.90
50586;DHT22;36542;51.700;8.846;2022-12-18T01:18:45;-4.70;99.90
50586;DHT22;36542;51.700;8.846;2022-12-18T01:21:13;-4.60;99.90
50586;DHT22;36542;51.700;8.846;2022-12-18T01:23:38;-4.60;99.90
50586;DHT22;36542;51.700;8.846;2022-12-18T01:26:09;-4.70;99.90
50586;DHT22;36542;51.700;8.846;2022-12-18T01:28:36;-4.60;99.90
50586;DHT22;36542;51.700;8.846;2022-12-18T01:31:18;-4.60;99.90
50586;DHT22;36542;51.700;8.846;2022-12-18T01:33:44;-4.60;99.90
50586;DHT22;36542;51.700;8.846;2022-12-18T01:36:24;-4.60;99.90
50586;DHT22;36542;51.700;8.846;2022-12-18T01:38:50;-4.50;99.90
50586;DHT22;36542;51.700;8.846;2022-12-18T01:41:18;-4.50;99.90
50586;DHT22;36542;51.700;8.846;2022-12-18T01:43:56;-4.50;99.90
50586;DHT22;36542;51.700;8.846;2022-12-18T01:46:23;-4.60;99.90
50586;DHT22;36542;51.700;8.846;2022-12-18T01:48:52;-4.60;99.90
50586;DHT22;36542;51.700;8.846;2022-12-18T01:51:19;-4.50;99.90
50586;DHT22;36542;51.700;8.846;2022-12-18T01:53:45;-4.50;99.90
50586;DHT22;36542;51.700;8.846;2022-12-18T01:56:19;-4.40;99.90
50586;DHT22;36542;51.700;8.846;2022-12-18T01:58:50;-4.40;99.90
50586;DHT22;36542;51.700;8.846;2022-12-18T02:01:18;-4.40;99.90
50586;DHT22;36542;51.700;8.846;2022-12-18T02:03:45;-4.50;99.90
50586;DHT22;36542;51.700;8.846;2022-12-18T02:06:15;-4.50;99.90
50586;DHT22;36542;51.700;8.846;2022-12-18T02:16:24;-4.30;99.90
50586;DHT22;36542;51.700;8.846;2022-12-18T02:18:57;-4.20;99.90
50586;DHT22;36542;51.700;8.846;2022-12-18T02:27:16;-4.40;99.90
50586;DHT22;36542;51.700;8.846;2022-12-18T02:29:53;-4.40;99.90
50586;DHT22;36542;51.700;8.846;2022-12-18T02:32:25;-4.40;99.90
50586;DHT22;36542;51.700;8.846;2022-12-18T02:34:54;-4.40;99.90
50586;DHT22;36542;51.700;8.846;2022-12-18T02:37:22;-4.50;99.90
50586;DHT22;36542;51.700;8.846;2022-12-18T02:39:49;-4.50;99.90
50586;DHT22;36542;51.700;8.846;2022-12-18T02:42:18;-4.60;99.90
50586;DHT22;36542;51.700;8.846;2022-12-18T02:44:49;-4.60;99.90
50586;DHT22;36542;51.700;8.846;2022-12-18T02:47:17;-4.50;99.90
50586;DHT22;36542;51.700;8.846;2022-12-18T02:58:18;-4.60;99.90
50586;DHT22;36542;51.700;8.846;2022-12-18T03:01:09;-4.60;99.90
50586;DHT22;36542;51.700;8.846;2022-12-18T03:03:46;-4.70;99.90
50586;DHT22;36542;51.700;8.846;2022-12-18T03:06:23;-4.70;99.90
50586;DHT22;36542;51.700;8.846;2022-12-18T03:08:54;-4.70;99.90
50586;DHT22;36542;51.700;8.846;2022-12-18T03:11:22;-4.70;99.90
50586;DHT22;36542;51.700;8.846;2022-12-18T03:14:09;-4.70;99.90
50586;DHT22;36542;51.700;8.846;2022-12-18T03:16:36;-4.70;99.90
50586;DHT22;36542;51.700;8.846;2022-12-18T03:19:13;-4.70;99.90
50586;DHT22;36542;51.700;8.846;2022-12-18T03:21:45;-4.80;99.90
50586;DHT22;36542;51.700;8.846;2022-12-18T03:24:11;-4.90;99.90
50586;DHT22;36542;51.700;8.846;2022-12-18T03:26:40;-5.00;99.90
50586;DHT22;36542;51.700;8.846;2022-12-18T03:29:13;-5.00;99.90
50586;DHT22;36542;51.700;8.846;2022-12-18T03:31:42;-5.00;99.90
50586;DHT22;36542;51.700;8.846;2022-12-18T03:34:17;-5.00;99.90
50586;DHT22;36542;51.700;8.846;2022-12-18T03:36:45;-5.00;99.90
50586;DHT22;36542;51.700;8.846;2022-12-18T03:39:11;-5.10;99.90
50586;DHT22;36542;51.700;8.846;2022-12-18T03:41:57;-5.00;99.90
50586;DHT22;36542;51.700;8.846;2022-12-18T03:47:51;-5.00;99.90
50586;DHT22;36542;51.700;8.846;2022-12-18T03:50:20;-5.10;99.90
50586;DHT22;36542;51.700;8.846;2022-12-18T03:52:54;-5.00;99.90
50586;DHT22;36542;51.700;8.846;2022-12-18T03:55:22;-5.00;99.90
50586;DHT22;36542;51.700;8.846;2022-12-18T03:57:50;-5.10;99.90
50586;DHT22;36542;51.700;8.846;2022-12-18T04:00:18;-5.00;99.90
50586;DHT22;36542;51.700;8.846;2022-12-18T04:02:50;-5.00;99.90
50586;DHT22;36542;51.700;8.846;2022-12-18T04:05:18;-5.00;99.90
50586;DHT22;36542;51.700;8.846;2022-12-18T04:07:47;-5.00;99.90
50586;DHT22;36542;51.700;8.846;2022-12-18T04:10:14;-5.00;99.90
50586;DHT22;36542;51.700;8.846;2022-12-18T04:12:41;-4.90;99.90
50586;DHT22;36542;51.700;8.846;2022-12-18T04:15:08;-4.90;99.90
50586;DHT22;36542;51.700;8.846;2022-12-18T04:17:34;-4.80;99.90
50586;DHT22;36542;51.700;8.846;2022-12-18T04:19:59;-4.70;99.90
50586;DHT22;36542;51.700;8.846;2022-12-18T04:22:25;-4.70;99.90
50586;DHT22;36542;51.700;8.846;2022-12-18T04:24:51;-4.70;99.90
50586;DHT22;36542;51.700;8.846;2022-12-18T04:27:16;-4.70;99.90
50586;DHT22;36542;51.700;8.846;2022-12-18T04:29:42;-4.70;99.90
50586;DHT22;36542;51.700;8.846;2022-12-18T04:32:08;-4.80;99.90
50586;DHT22;36542;51.700;8.846;2022-12-18T04:34:33;-4.70;99.90
50586;DHT22;36542;51.700;8.846;2022-12-18T04:36:59;-4.70;99.90
50586;DHT22;36542;51.700;8.846;2022-12-18T04:39:24;-4.80;99.90
50586;DHT22;36542;51.700;8.846;2022-12-18T04:41:50;-4.80;99.90
50586;DHT22;36542;51.700;8.846;2022-12-18T04:44:15;-4.90;99.90
50586;DHT22;36542;51.700;8.846;2022-12-18T04:46:41;-4.90;99.90
50586;DHT22;36542;51.700;8.846;2022-12-18T04:49:06;-4.90;99.90
50586;DHT22;36542;51.700;8.846;2022-12-18T04:51:32;-4.90;99.90
50586;DHT22;36542;51.700;8.846;2022-12-18T04:53:57;-4.90;99.90
50586;DHT22;36542;51.700;8.846;2022-12-18T04:56:23;-4.90;99.90
50586;DHT22;36542;51.700;8.846;2022-12-18T04:58:49;-4.80;99.90
50586;DHT22;36542;51.700;8.846;2022-12-18T05:01:16;-4.70;99.90
50586;DHT22;36542;51.700;8.846;2022-12-18T05:03:42;-4.60;99.90
50586;DHT22;36542;51.700;8.846;2022-12-18T05:06:07;-4.50;99.90
50586;DHT22;36542;51.700;8.846;2022-12-18T05:08:33;-4.40;99.90
50586;DHT22;36542;51.700;8.846;2022-12-18T05:11:04;-4.40;99.90
50586;DHT22;36542;51.700;8.846;2022-12-18T05:13:31;-4.40;99.90
50586;DHT22;36542;51.700;8.846;2022-12-18T05:15:56;-4.50;99.90
50586;DHT22;36542;51.700;8.846;2022-12-18T05:18:23;-4.50;99.90
50586;DHT22;36542;51.700;8.846;2022-12-18T05:20:50;-4.70;99.90
50586;DHT22;36542;51.700;8.846;2022-12-18T05:23:16;-4.60;99.90
50586;DHT22;36542;51.700;8.846;2022-12-18T05:25:42;-4.50;99.90
50586;DHT22;36542;51.700;8.846;2022-12-18T05:28:07;-4.40;99.90
50586;DHT22;36542;51.700;8.846;2022-12-18T05:30:33;-4.30;99.90
50586;DHT22;36542;51.700;8.846;2022-12-18T05:32:59;-4.30;99.90
50586;DHT22;36542;51.700;8.846;2022-12-18T05:35:24;-4.20;99.90
50586;DHT22;36542;51.700;8.846;2022-12-18T05:37:50;-4.10;99.90
50586;DHT22;36542;51.700;8.846;2022-12-18T05:40:15;-4.00;99.90
50586;DHT22;36542;51.700;8.846;2022-12-18T05:42:41;-3.90;99.90
50586;DHT22;36542;51.700;8.846;2022-12-18T05:45:07;-3.90;99.90
50586;DHT22;36542;51.700;8.846;2022-12-18T05:47:32;-3.80;99.90
50586;DHT22;36542;51.700;8.846;2022-12-18T05:49:58;-3.80;99.90
50586;DHT22;36542;51.700;8.846;2022-12-18T05:52:23;-3.70;99.90
50586;DHT22;36542;51.700;8.846;2022-12-18T05:54:49;-3.70;99.90
50586;DHT22;36542;51.700;8.846;2022-12-18T05:57:15;-3.70;99.90
50586;DHT22;36542;51.700;8.846;2022-12-18T05:59:40;-3.70;99.90
50586;DHT22;36542;51.700;8.846;2022-12-18T06:02:06;-3.70;99.90
50586;DHT22;36542;51.700;8.846;2022-12-18T06:04:31;-3.70;99.90
50586;DHT22;36542;51.700;8.846;2022-12-18T06:06:58;-3.70;99.90
50586;DHT22;36542;51.700;8.846;2022-12-18T06:09:23;-3.70;99.90
50586;DHT22;36542;51.700;8.846;2022-12-18T06:11:51;-3.70;99.90
50586;DHT22;36542;51.700;8.846;2022-12-18T06:14:17;-3.70;99.90
50586;DHT22;36542;51.700;8.846;2022-12-18T06:16:42;-3.70;99.90
50586;DHT22;36542;51.700;8.846;2022-12-18T06:19:14;-3.80;99.90
50586;DHT22;36542;51.700;8.846;2022-12-18T06:21:40;-3.80;99.90
50586;DHT22;36542;51.700;8.846;2022-12-18T06:24:06;-3.90;99.90
50586;DHT22;36542;51.700;8.846;2022-12-18T06:26:31;-4.00;99.90
50586;DHT22;36542;51.700;8.846;2022-12-18T06:28:57;-4.00;99.90
50586;DHT22;36542;51.700;8.846;2022-12-18T06:31:22;-4.00;99.90
50586;DHT22;36542;51.700;8.846;2022-12-18T06:33:48;-4.00;99.90
50586;DHT22;36542;51.700;8.846;2022-12-18T06:36:14;-4.00;99.90
50586;DHT22;36542;51.700;8.846;2022-12-18T06:38:41;-4.00;99.90
50586;DHT22;36542;51.700;8.846;2022-12-18T06:41:12;-4.00;99.90
50586;DHT22;36542;51.700;8.846;2022-12-18T06:43:38;-4.00;99.90
50586;DHT22;36542;51.700;8.846;2022-12-18T06:46:04;-4.00;99.90
50586;DHT22;36542;51.700;8.846;2022-12-18T06:48:31;-4.10;99.90
50586;DHT22;36542;51.700;8.846;2022-12-18T06:50:57;-4.10;99.90
50586;DHT22;36542;51.700;8.846;2022-12-18T06:53:22;-4.10;99.90
50586;DHT22;36542;51.700;8.846;2022-12-18T06:55:48;-4.00;99.90
50586;DHT22;36542;51.700;8.846;2022-12-18T06:58:14;-4.10;99.90
50586;DHT22;36542;51.700;8.846;2022-12-18T07:00:39;-4.10;99.90
50586;DHT22;36542;51.700;8.846;2022-12-18T07:03:05;-4.20;99.90
50586;DHT22;36542;51.700;8.846;2022-12-18T07:05:30;-4.20;99.90
50586;DHT22;36542;51.700;8.846;2022-12-18T07:07:56;-4.30;99.90
50586;DHT22;36542;51.700;8.846;2022-12-18T07:10:21;-4.40;99.90
50586;DHT22;36542;51.700;8.846;2022-12-18T07:12:47;-4.40;99.90
50586;DHT22;36542;51.700;8.846;2022-12-18T07:15:12;-4.40;99.90
50586;DHT22;36542;51.700;8.846;2022-12-18T07:17:38;-4.40;99.90
50586;DHT22;36542;51.700;8.846;2022-12-18T07:20:04;-4.40;99.90
50586;DHT22;36542;51.700;8.846;2022-12-18T07:22:30;-4.30;99.90
50586;DHT22;36542;51.700;8.846;2022-12-18T07:24:55;-4.30;99.90
50586;DHT22;36542;51.700;8.846;2022-12-18T07:27:21;-4.30;99.90
50586;DHT22;36542;51.700;8.846;2022-12-18T07:29:47;-4.30;99.90
50586;DHT22;36542;51.700;8.846;2022-12-18T07:32:12;-4.30;99.90
50586;DHT22;36542;51.700;8.846;2022-12-18T07:34:38;-4.30;99.90
50586;DHT22;36542;51.700;8.846;2022-12-18T07:37:03;-4.30;99.90
50586;DHT22;36542;51.700;8.846;2022-12-18T07:39:29;-4.30;99.90
50586;DHT22;36542;51.700;8.846;2022-12-18T07:41:54;-4.40;99.90
50586;DHT22;36542;51.700;8.846;2022-12-18T07:44:38;-4.50;99.90
50586;DHT22;36542;51.700;8.846;2022-12-18T07:47:04;-4.50;99.90
50586;DHT22;36542;51.700;8.846;2022-12-18T07:49:29;-4.70;99.90
50586;DHT22;36542;51.700;8.846;2022-12-18T07:51:56;-4.80;99.90
50586;DHT22;36542;51.700;8.846;2022-12-18T07:54:22;-4.90;99.90
50586;DHT22;36542;51.700;8.846;2022-12-18T07:56:48;-4.90;99.90
50586;DHT22;36542;51.700;8.846;2022-12-18T07:59:14;-4.80;99.90
50586;DHT22;36542;51.700;8.846;2022-12-18T08:01:39;-4.70;99.90
50586;DHT22;36542;51.700;8.846;2022-12-18T08:04:05;-4.50;99.90
50586;DHT22;36542;51.700;8.846;2022-12-18T08:06:30;-4.30;99.90
50586;DHT22;36542;51.700;8.846;2022-12-18T08:08:56;-4.10;99.90
50586;DHT22;36542;51.700;8.846;2022-12-18T08:11:23;-3.90;99.90
50586;DHT22;36542;51.700;8.846;2022-12-18T08:13:49;-3.70;99.90
50586;DHT22;36542;51.700;8.846;2022-12-18T08:16:14;-3.50;99.90
50586;DHT22;36542;51.700;8.846;2022-12-18T08:18:40;-3.40;99.90
50586;DHT22;36542;51.700;8.846;2022-12-18T08:21:14;-3.20;99.90
50586;DHT22;36542;51.700;8.846;2022-12-18T08:23:40;-2.60;99.90
50586;DHT22;36542;51.700;8.846;2022-12-18T08:26:06;-1.80;99.90
50586;DHT22;36542;51.700;8.846;2022-12-18T08:28:32;-1.50;99.90
50586;DHT22;36542;51.700;8.846;2022-12-18T08:30:58;-1.30;99.90
50586;DHT22;36542;51.700;8.846;2022-12-18T08:33:24;-1.40;99.90
50586;DHT22;36542;51.700;8.846;2022-12-18T08:35:49;-1.50;99.90
50586;DHT22;36542;51.700;8.846;2022-12-18T08:38:15;-1.50;99.90
50586;DHT22;36542;51.700;8.846;2022-12-18T08:40:40;-1.50;99.90
50586;DHT22;36542;51.700;8.846;2022-12-18T08:43:07;-1.20;99.90
50586;DHT22;36542;51.700;8.846;2022-12-18T08:45:51;-1.10;99.90
50586;DHT22;36542;51.700;8.846;2022-12-18T08:48:17;-0.90;99.90
50586;DHT22;36542;51.700;8.846;2022-12-18T08:50:42;-0.90;99.90
50586;DHT22;36542;51.700;8.846;2022-12-18T08:53:08;-1.00;99.90
50586;DHT22;36542;51.700;8.846;2022-12-18T08:55:34;-1.50;99.90
50586;DHT22;36542;51.700;8.846;2022-12-18T08:58:00;-1.50;99.90
50586;DHT22;36542;51.700;8.846;2022-12-18T09:00:25;-1.30;99.90
50586;DHT22;36542;51.700;8.846;2022-12-18T09:02:51;-1.00;99.90
50586;DHT22;36542;51.700;8.846;2022-12-18T09:05:16;-0.80;99.90
50586;DHT22;36542;51.700;8.846;2022-12-18T09:07:42;-0.90;99.90
50586;DHT22;36542;51.700;8.846;2022-12-18T09:10:07;-0.70;99.90
50586;DHT22;36542;51.700;8.846;2022-12-18T09:12:33;-0.70;99.90
50586;DHT22;36542;51.700;8.846;2022-12-18T09:14:58;-0.60;99.90
50586;DHT22;36542;51.700;8.846;2022-12-18T09:17:24;-0.50;99.90
50586;DHT22;36542;51.700;8.846;2022-12-18T09:19:49;-0.40;99.90
50586;DHT22;36542;51.700;8.846;2022-12-18T09:22:15;0.20;99.90
50586;DHT22;36542;51.700;8.846;2022-12-18T09:24:41;0.50;99.90
50586;DHT22;36542;51.700;8.846;2022-12-18T09:27:06;0.50;99.90
50586;DHT22;36542;51.700;8.846;2022-12-18T09:29:32;-0.30;99.90
50586;DHT22;36542;51.700;8.846;2022-12-18T09:31:58;-0.80;99.90
50586;DHT22;36542;51.700;8.846;2022-12-18T09:34:23;-1.00;99.90
50586;DHT22;36542;51.700;8.846;2022-12-18T09:36:50;-1.00;99.90
50586;DHT22;36542;51.700;8.846;2022-12-18T09:39:15;-0.80;99.90
50586;DHT22;36542;51.700;8.846;2022-12-18T09:41:50;-0.80;99.90
50586;DHT22;36542;51.700;8.846;2022-12-18T09:44:32;-0.80;99.90
50586;DHT22;36542;51.700;8.846;2022-12-18T09:49:45;-0.30;99.90
50586;DHT22;36542;51.700;8.846;2022-12-18T09:52:31;0.00;99.90
50586;DHT22;36542;51.700;8.846;2022-12-18T09:55:34;0.60;99.90
50586;DHT22;36542;51.700;8.846;2022-12-18T10:00:34;1.50;99.90
50586;DHT22;36542;51.700;8.846;2022-12-18T10:03:13;1.70;99.90
50586;DHT22;36542;51.700;8.846;2022-12-18T10:16:58;1.50;99.90
50586;DHT22;36542;51.700;8.846;2022-12-18T10:19:39;1.30;99.90
50586;DHT22;36542;51.700;8.846;2022-12-18T10:25:45;2.00;99.90
50586;DHT22;36542;51.700;8.846;2022-12-18T10:28:15;1.90;99.90
50586;DHT22;36542;51.700;8.846;2022-12-18T10:30:42;2.20;99.90
50586;DHT22;36542;51.700;8.846;2022-12-18T10:33:16;2.40;99.90
50586;DHT22;36542;51.700;8.846;2022-12-18T10:35:43;2.30;99.90
50586;DHT22;36542;51.700;8.846;2022-12-18T10:43:20;2.60;99.90
50586;DHT22;36542;51.700;8.846;2022-12-18T10:46:00;2.00;99.90
50586;DHT22;36542;51.700;8.846;2022-12-18T10:48:26;1.80;99.90
50586;DHT22;36542;51.700;8.846;2022-12-18T10:50:52;1.80;99.90
50586;DHT22;36542;51.700;8.846;2022-12-18T10:53:22;1.80;99.90
50586;DHT22;36542;51.700;8.846;2022-12-18T10:55:48;1.80;99.90
50586;DHT22;36542;51.700;8.846;2022-12-18T10:58:30;1.60;99.90
50586;DHT22;36542;51.700;8.846;2022-12-18T11:03:36;0.20;99.90
50586;DHT22;36542;51.700;8.846;2022-12-18T11:06:05;-0.30;99.90
50586;DHT22;36542;51.700;8.846;2022-12-18T11:08:31;-0.60;99.90
50586;DHT22;36542;51.700;8.846;2022-12-18T11:10:56;-0.70;99.90
50586;DHT22;36542;51.700;8.846;2022-12-18T11:13:24;-0.80;99.90
50586;DHT22;36542;51.700;8.846;2022-12-18T11:15:51;-0.90;99.90
50586;DHT22;36542;51.700;8.846;2022-12-18T11:18:30;-0.90;99.90
50586;DHT22;36542;51.700;8.846;2022-12-18T11:21:05;-1.00;99.90
50586;DHT22;36542;51.700;8.846;2022-12-18T11:23:31;-1.00;99.90
50586;DHT22;36542;51.700;8.846;2022-12-18T11:26:03;-1.10;99.90
50586;DHT22;36542;51.700;8.846;2022-12-18T11:28:37;-1.10;99.90
50586;DHT22;36542;51.700;8.846;2022-12-18T11:31:22;-1.10;99.90
50586;DHT22;36542;51.700;8.846;2022-12-18T11:36:22;-1.20;99.90
50586;DHT22;36542;51.700;8.846;2022-12-18T11:38:49;-1.20;99.90
50586;DHT22;36542;51.700;8.846;2022-12-18T11:44:12;-1.20;99.90
50586;DHT22;36542;51.700;8.846;2022-12-18T11:46:46;-1.30;99.90
50586;DHT22;36542;51.700;8.846;2022-12-18T11:49:25;-1.20;99.90
50586;DHT22;36542;51.700;8.846;2022-12-18T11:52:19;-1.20;99.90
50586;DHT22;36542;51.700;8.846;2022-12-18T11:54:46;-1.20;99.90
50586;DHT22;36542;51.700;8.846;2022-12-18T11:59:54;-1.10;99.90
50586;DHT22;36542;51.700;8.846;2022-12-18T12:02:47;-1.10;99.90
50586;DHT22;36542;51.700;8.846;2022-12-18T12:05:42;-1.00;99.90
50586;DHT22;36542;51.700;8.846;2022-12-18T12:08:14;-0.90;99.90
50586;DHT22;36542;51.700;8.846;2022-12-18T12:16:02;-0.90;99.90
50586;DHT22;36542;51.700;8.846;2022-12-18T12:18:47;-0.80;99.90
50586;DHT22;36542;51.700;8.846;2022-12-18T12:26:38;-0.80;99.90
50586;DHT22;36542;51.700;8.846;2022-12-18T12:32:34;-0.90;99.90
50586;DHT22;36542;51.700;8.846;2022-12-18T12:35:19;-0.90;99.90
50586;DHT22;36542;51.700;8.846;2022-12-18T12:40:26;-0.90;99.90
50586;DHT22;36542;51.700;8.846;2022-12-18T12:42:57;-0.90;99.90
50586;DHT22;36542;51.700;8.846;2022-12-18T12:46:07;-0.90;99.90
50586;DHT22;36542;51.700;8.846;2022-12-18T12:48:53;-0.90;99.90
50586;DHT22;36542;51.700;8.846;2022-12-18T12:51:34;-0.90;99.90
50586;DHT22;36542;51.700;8.846;2022-12-18T12:54:01;-0.90;99.90
50586;DHT22;36542;51.700;8.846;2022-12-18T12:57:16;-0.80;99.90
50586;DHT22;36542;51.700;8.846;2022-12-18T13:04:33;-0.70;99.90
50586;DHT22;36542;51.700;8.846;2022-12-18T13:07:15;-0.70;99.90
50586;DHT22;36542;51.700;8.846;2022-12-18T13:12:59;-0.80;99.90
50586;DHT22;36542;51.700;8.846;2022-12-18T13:15:30;-0.70;99.90
50586;DHT22;36542;51.700;8.846;2022-12-18T13:18:06;-0.70;99.90
50586;DHT22;36542;51.700;8.846;2022-12-18T13:23:38;-0.70;99.90
50586;DHT22;36542;51.700;8.846;2022-12-18T13:31:02;-0.70;99.90
50586;DHT22;36542;51.700;8.846;2022-12-18T13:36:16;-0.70;99.90
50586;DHT22;36542;51.700;8.846;2022-12-18T13:41:41;-0.70;99.90
50586;DHT22;36542;51.700;8.846;2022-12-18T13:44:40;-0.70;99.90
50586;DHT22;36542;51.700;8.846;2022-12-18T13:47:33;-0.70;99.90
50586;DHT22;36542;51.700;8.846;2022-12-18T13:49:59;-0.60;99.90
50586;DHT22;36542;51.700;8.846;2022-12-18T13:52:28;-0.60;99.90
50586;DHT22;36542;51.700;8.846;2022-12-18T13:55:00;-0.60;99.90
50586;DHT22;36542;51.700;8.846;2022-12-18T13:57:32;-0.60;99.90
50586;DHT22;36542;51.700;8.846;2022-12-18T14:00:01;-0.70;99.90
50586;DHT22;36542;51.700;8.846;2022-12-18T14:02:44;-0.70;99.90
50586;DHT22;36542;51.700;8.846;2022-12-18T14:05:26;-0.70;99.90
50586;DHT22;36542;51.700;8.846;2022-12-18T14:07:53;-0.80;99.90
50586;DHT22;36542;51.700;8.846;2022-12-18T14:10:19;-0.90;99.90
50586;DHT22;36542;51.700;8.846;2022-12-18T14:12:47;-0.90;99.90
50586;DHT22;36542;51.700;8.846;2022-12-18T14:18:00;-1.00;99.90
50586;DHT22;36542;51.700;8.846;2022-12-18T14:20:32;-1.10;99.90
50586;DHT22;36542;51.700;8.846;2022-12-18T14:22:58;-1.10;99.90
50586;DHT22;36542;51.700;8.846;2022-12-18T14:25:27;-1.10;99.90
50586;DHT22;36542;51.700;8.846;2022-12-18T14:28:04;-1.20;99.90
50586;DHT22;36542;51.700;8.846;2022-12-18T14:30:38;-1.20;99.90
50586;DHT22;36542;51.700;8.846;2022-12-18T14:33:16;-1.30;99.90
50586;DHT22;36542;51.700;8.846;2022-12-18T14:35:57;-1.40;99.90
50586;DHT22;36542;51.700;8.846;2022-12-18T14:38:37;-1.40;99.90
50586;DHT22;36542;51.700;8.846;2022-12-18T14:41:06;-1.40;99.90
50586;DHT22;36542;51.700;8.846;2022-12-18T14:43:36;-1.50;99.90
50586;DHT22;36542;51.700;8.846;2022-12-18T14:46:04;-1.50;99.90
50586;DHT22;36542;51.700;8.846;2022-12-18T14:51:01;-1.60;99.90
50586;DHT22;36542;51.700;8.846;2022-12-18T14:56:03;-1.60;99.90
50586;DHT22;36542;51.700;8.846;2022-12-18T14:58:29;-1.50;99.90
50586;DHT22;36542;51.700;8.846;2022-12-18T15:00:54;-1.60;99.90
50586;DHT22;36542;51.700;8.846;2022-12-18T15:03:21;-1.60;99.90
50586;DHT22;36542;51.700;8.846;2022-12-18T15:05:47;-1.50;99.90
50586;DHT22;36542;51.700;8.846;2022-12-18T15:08:36;-1.50;99.90
50586;DHT22;36542;51.700;8.846;2022-12-18T15:11:02;-1.60;99.90
50586;DHT22;36542;51.700;8.846;2022-12-18T15:13:28;-1.60;99.90
50586;DHT22;36542;51.700;8.846;2022-12-18T15:15:56;-1.60;99.90
50586;DHT22;36542;51.700;8.846;2022-12-18T15:18:30;-1.60;99.90
50586;DHT22;36542;51.700;8.846;2022-12-18T15:20:59;-1.60;99.90
50586;DHT22;36542;51.700;8.846;2022-12-18T15:23:28;-1.60;99.90
50586;DHT22;36542;51.700;8.846;2022-12-18T15:26:04;-1.60;99.90
50586;DHT22;36542;51.700;8.846;2022-12-18T15:28:45;-1.60;99.90
50586;DHT22;36542;51.700;8.846;2022-12-18T15:33:42;-1.60;99.90
50586;DHT22;36542;51.700;8.846;2022-12-18T15:36:13;-1.60;99.90
50586;DHT22;36542;51.700;8.846;2022-12-18T15:38:39;-1.60;99.90
50586;DHT22;36542;51.700;8.846;2022-12-18T15:41:11;-1.60;99.90
50586;DHT22;36542;51.700;8.846;2022-12-18T15:43:37;-1.60;99.90
50586;DHT22;36542;51.700;8.846;2022-12-18T15:46:11;-1.60;99.90
50586;DHT22;36542;51.700;8.846;2022-12-18T15:48:44;-1.60;99.90
50586;DHT22;36542;51.700;8.846;2022-12-18T15:51:25;-1.60;99.90
50586;DHT22;36542;51.700;8.846;2022-12-18T15:53:54;-1.50;99.90
50586;DHT22;36542;51.700;8.846;2022-12-18T15:56:21;-1.50;99.90
50586;DHT22;36542;51.700;8.846;2022-12-18T15:59:15;-1.60;99.90
50586;DHT22;36542;51.700;8.846;2022-12-18T16:01:42;-1.60;99.90
50586;DHT22;36542;51.700;8.846;2022-12-18T16:04:12;-1.60;99.90
50586;DHT22;36542;51.700;8.846;2022-12-18T16:06:38;-1.60;99.90
50586;DHT22;36542;51.700;8.846;2022-12-18T16:09:04;-1.60;99.90
50586;DHT22;36542;51.700;8.846;2022-12-18T16:11:31;-1.70;99.90
50586;DHT22;36542;51.700;8.846;2022-12-18T16:14:17;-1.70;99.90
50586;DHT22;36542;51.700;8.846;2022-12-18T16:16:48;-1.70;99.90
50586;DHT22;36542;51.700;8.846;2022-12-18T16:19:14;-1.70;99.90
50586;DHT22;36542;51.700;8.846;2022-12-18T16:21:40;-1.70;99.90
50586;DHT22;36542;51.700;8.846;2022-12-18T16:24:08;-1.70;99.90
50586;DHT22;36542;51.700;8.846;2022-12-18T16:26:34;-1.70;99.90
50586;DHT22;36542;51.700;8.846;2022-12-18T16:29:00;-1.80;99.90
50586;DHT22;36542;51.700;8.846;2022-12-18T16:31:25;-1.80;99.90
50586;DHT22;36542;51.700;8.846;2022-12-18T16:34:10;-1.80;99.90
50586;DHT22;36542;51.700;8.846;2022-12-18T16:36:36;-1.80;99.90
50586;DHT22;36542;51.700;8.846;2022-12-18T16:39:01;-1.80;99.90
50586;DHT22;36542;51.700;8.846;2022-12-18T16:41:27;-1.80;99.90
50586;DHT22;36542;51.700;8.846;2022-12-18T16:43:59;-1.80;99.90
50586;DHT22;36542;51.700;8.846;2022-12-18T16:46:24;-1.70;99.90
50586;DHT22;36542;51.700;8.846;2022-12-18T16:48:50;-1.70;99.90
50586;DHT22;36542;51.700;8.846;2022-12-18T16:51:15;-1.70;99.90
50586;DHT22;36542;51.700;8.846;2022-12-18T16:53:41;-1.70;99.90
50586;DHT22;36542;51.700;8.846;2022-12-18T16:56:07;-1.80;99.90
50586;DHT22;36542;51.700;8.846;2022-12-18T16:58:32;-1.80;99.90
50586;DHT22;36542;51.700;8.846;2022-12-18T17:00:58;-1.80;99.90
50586;DHT22;36542;51.700;8.846;2022-12-18T17:03:24;-1.80;99.90
50586;DHT22;36542;51.700;8.846;2022-12-18T17:05:49;-1.80;99.90
50586;DHT22;36542;51.700;8.846;2022-12-18T17:08:15;-1.90;99.90
50586;DHT22;36542;51.700;8.846;2022-12-18T17:10:40;-1.90;99.90
50586;DHT22;36542;51.700;8.846;2022-12-18T17:13:06;-1.90;99.90
50586;DHT22;36542;51.700;8.846;2022-12-18T17:15:34;-1.90;99.90
50586;DHT22;36542;51.700;8.846;2022-12-18T17:18:00;-1.90;99.90
50586;DHT22;36542;51.700;8.846;2022-12-18T17:20:26;-2.00;99.90
50586;DHT22;36542;51.700;8.846;2022-12-18T17:22:51;-2.00;99.90
50586;DHT22;36542;51.700;8.846;2022-12-18T17:25:17;-2.00;99.90
50586;DHT22;36542;51.700;8.846;2022-12-18T17:27:42;-2.10;99.90
50586;DHT22;36542;51.700;8.846;2022-12-18T17:30:08;-2.00;99.90
50586;DHT22;36542;51.700;8.846;2022-12-18T17:32:34;-2.10;99.90
50586;DHT22;36542;51.700;8.846;2022-12-18T17:34:59;-2.10;99.90